sensor_id;sensor_type;location;lat;lon;timestamp;pressure;altitude;pressure_sealevel;temperature;humidity
80712;BME280;70078;51.596;5.678;2023-10-09T00:00:34;101896.84;;;13.14;83.87
80712;BME280;70078;51.596;5.678;2023-10-09T00:03:06;101938.34;;;13.45;83.63
80712;BME280;70078;51.596;5.678;2023-10-09T00:05:32;101942.16;;;13.43;84.03
80712;BME280;70078;51.596;5.678;2023-10-09T00:08:11;101894.88;;;13.16;84.06
80712;BME280;70078;51.596;5.678;2023-10-09T00:10:41;101903.13;;;13.22;83.99
80712;BME280;70078;51.596;5.678;2023-10-09T00:13:20;101875.66;;;13.02;84.07
80712;BME280;70078;51.596;5.678;2023-10-09T00:15:52;101876.56;;;13.11;84.59
80712;BME280;70078;51.596;5.678;2023-10-09T00:18:19;101916.75;;;13.29;84.44
80712;BME280;70078;51.596;5.678;2023-10-09T00:20:53;101908.56;;;13.30;84.72
80712;BME280;70078;51.596;5.678;2023-10-09T00:23:20;101883.59;;;13.12;84.59
80712;BME280;70078;51.596;5.678;2023-10-09T00:25:51;101919.34;;;13.39;84.41
80712;BME280;70078;51.596;5.678;2023-10-09T00:28:52;101905.19;;;13.28;84.73
80712;BME280;70078;51.596;5.678;2023-10-09T00:31:18;101904.25;;;13.38;84.61
80712;BME280;70078;51.596;5.678;2023-10-09T00:33:58;101852.75;;;13.08;84.74
80712;BME280;70078;51.596;5.678;2023-10-09T00:36:44;101841.34;;;13.06;85.57
80712;BME280;70078;51.596;5.678;2023-10-09T00:39:16;101849.44;;;13.14;86.03
80712;BME280;70078;51.596;5.678;2023-10-09T00:41:58;101885.16;;;13.41;85.95
80712;BME280;70078;51.596;5.678;2023-10-09T00:44:25;101887.00;;;13.40;86.56
80712;BME280;70078;51.596;5.678;2023-10-09T00:47:03;101865.84;;;13.37;86.72
80712;BME280;70078;51.596;5.678;2023-10-09T00:49:36;101866.00;;;13.36;87.10
80712;BME280;70078;51.596;5.678;2023-10-09T00:52:08;101905.56;;;13.68;87.03
80712;BME280;70078;51.596;5.678;2023-10-09T00:54:42;101850.25;;;13.32;87.41
80712;BME280;70078;51.596;5.678;2023-10-09T00:57:09;101856.00;;;13.38;87.20
80712;BME280;70078;51.596;5.678;2023-10-09T00:59:39;101910.50;;;13.80;87.54
80712;BME280;70078;51.596;5.678;2023-10-09T01:02:08;101865.41;;;13.50;87.87
80712;BME280;70078;51.596;5.678;2023-10-09T01:04:35;101831.03;;;13.45;87.73
80712;BME280;70078;51.596;5.678;2023-10-09T01:07:06;101834.91;;;13.51;88.01
80712;BME280;70078;51.596;5.678;2023-10-09T01:09:40;101802.97;;;13.31;88.27
80712;BME280;70078;51.596;5.678;2023-10-09T01:12:09;101915.81;;;14.06;87.90
80712;BME280;70078;51.596;5.678;2023-10-09T01:14:45;101854.94;;;13.73;88.25
80712;BME280;70078;51.596;5.678;2023-10-09T01:17:17;101831.31;;;13.68;87.94
80712;BME280;70078;51.596;5.678;2023-10-09T01:19:54;101819.41;;;13.71;87.99
80712;BME280;70078;51.596;5.678;2023-10-09T01:22:21;101860.25;;;13.99;87.52
80712;BME280;70078;51.596;5.678;2023-10-09T01:24:47;101899.09;;;14.29;87.81
80712;BME280;70078;51.596;5.678;2023-10-09T01:27:15;101846.47;;;13.94;87.83
80712;BME280;70078;51.596;5.678;2023-10-09T01:29:41;101848.16;;;14.03;87.56
80712;BME280;70078;51.596;5.678;2023-10-09T01:32:11;101799.09;;;13.68;87.18
80712;BME280;70078;51.596;5.678;2023-10-09T01:34:44;101831.38;;;14.01;87.24
80712;BME280;70078;51.596;5.678;2023-10-09T01:37:12;101896.13;;;14.48;87.56
80712;BME280;70078;51.596;5.678;2023-10-09T01:39:45;101877.75;;;14.35;87.52
80712;BME280;70078;51.596;5.678;2023-10-09T01:42:10;101876.25;;;14.33;87.26
80712;BME280;70078;51.596;5.678;2023-10-09T01:44:41;101852.25;;;14.23;87.40
80712;BME280;70078;51.596;5.678;2023-10-09T01:47:08;101900.66;;;14.56;87.46
80712;BME280;70078;51.596;5.678;2023-10-09T01:49:39;101894.97;;;14.59;87.33
80712;BME280;70078;51.596;5.678;2023-10-09T01:52:14;101831.25;;;14.27;87.20
80712;BME280;70078;51.596;5.678;2023-10-09T01:54:45;101833.09;;;14.26;87.16
80712;BME280;70078;51.596;5.678;2023-10-09T01:57:18;101853.31;;;14.47;87.21
80712;BME280;70078;51.596;5.678;2023-10-09T01:59:48;101893.13;;;14.76;87.48
80712;BME280;70078;51.596;5.678;2023-10-09T02:02:16;101895.97;;;14.82;87.27
80712;BME280;70078;51.596;5.678;2023-10-09T02:04:58;101898.31;;;14.85;87.42
80712;BME280;70078;51.596;5.678;2023-10-09T02:07:50;101884.88;;;14.85;87.34
80712;BME280;70078;51.596;5.678;2023-10-09T02:10:20;101872.94;;;14.71;87.30
80712;BME280;70078;51.596;5.678;2023-10-09T02:12:57;101841.22;;;14.59;86.87
80712;BME280;70078;51.596;5.678;2023-10-09T02:15:34;101893.59;;;14.95;87.30
80712;BME280;70078;51.596;5.678;2023-10-09T02:18:06;101866.41;;;14.74;86.82
80712;BME280;70078;51.596;5.678;2023-10-09T02:20:51;101873.78;;;14.88;87.03
80712;BME280;70078;51.596;5.678;2023-10-09T02:23:27;101833.81;;;14.69;86.68
80712;BME280;70078;51.596;5.678;2023-10-09T02:26:16;101801.22;;;14.56;86.43
80712;BME280;70078;51.596;5.678;2023-10-09T02:28:51;101896.28;;;15.12;86.64
80712;BME280;70078;51.596;5.678;2023-10-09T02:31:27;101808.13;;;14.75;86.98
80712;BME280;70078;51.596;5.678;2023-10-09T02:34:05;101829.09;;;14.87;86.44
80712;BME280;70078;51.596;5.678;2023-10-09T02:36:31;101829.78;;;14.81;86.41
80712;BME280;70078;51.596;5.678;2023-10-09T02:38:56;101801.91;;;14.74;86.44
80712;BME280;70078;51.596;5.678;2023-10-09T02:41:22;101859.63;;;15.19;86.48
80712;BME280;70078;51.596;5.678;2023-10-09T02:43:53;101829.06;;;15.04;86.86
80712;BME280;70078;51.596;5.678;2023-10-09T02:46:21;101826.34;;;15.04;86.80
80712;BME280;70078;51.596;5.678;2023-10-09T02:48:54;101859.63;;;15.27;86.50
80712;BME280;70078;51.596;5.678;2023-10-09T02:51:22;101817.44;;;15.03;86.57
80712;BME280;70078;51.596;5.678;2023-10-09T02:53:50;101840.44;;;15.22;86.05
80712;BME280;70078;51.596;5.678;2023-10-09T02:56:16;101795.09;;;15.03;86.46
80712;BME280;70078;51.596;5.678;2023-10-09T02:58:48;101844.94;;;15.38;85.73
80712;BME280;70078;51.596;5.678;2023-10-09T03:01:15;101855.38;;;15.33;85.77
80712;BME280;70078;51.596;5.678;2023-10-09T03:03:41;101836.72;;;15.31;85.65
80712;BME280;70078;51.596;5.678;2023-10-09T03:06:14;101831.88;;;15.18;86.05
80712;BME280;70078;51.596;5.678;2023-10-09T03:08:50;101794.47;;;14.92;86.08
80712;BME280;70078;51.596;5.678;2023-10-09T03:11:15;101790.94;;;14.92;85.66
80712;BME280;70078;51.596;5.678;2023-10-09T03:13:42;101801.84;;;14.98;85.42
80712;BME280;70078;51.596;5.678;2023-10-09T03:16:09;101856.72;;;15.37;85.83
80712;BME280;70078;51.596;5.678;2023-10-09T03:18:49;101809.38;;;15.11;85.41
80712;BME280;70078;51.596;5.678;2023-10-09T03:21:14;101763.41;;;14.90;85.01
80712;BME280;70078;51.596;5.678;2023-10-09T03:23:40;101796.94;;;15.10;85.16
80712;BME280;70078;51.596;5.678;2023-10-09T03:26:06;101808.50;;;15.27;85.17
80712;BME280;70078;51.596;5.678;2023-10-09T03:28:33;101754.63;;;14.88;85.06
80712;BME280;70078;51.596;5.678;2023-10-09T03:30:58;101745.44;;;14.82;84.68
80712;BME280;70078;51.596;5.678;2023-10-09T03:33:28;101773.78;;;15.01;84.82
80712;BME280;70078;51.596;5.678;2023-10-09T03:35:53;101830.66;;;15.37;84.53
80712;BME280;70078;51.596;5.678;2023-10-09T03:38:18;101759.34;;;14.94;84.48
80712;BME280;70078;51.596;5.678;2023-10-09T03:40:44;101815.19;;;15.31;84.76
80712;BME280;70078;51.596;5.678;2023-10-09T03:43:13;101747.41;;;14.96;84.63
80712;BME280;70078;51.596;5.678;2023-10-09T03:45:40;101771.06;;;15.09;84.19
80712;BME280;70078;51.596;5.678;2023-10-09T03:48:10;101756.28;;;15.05;84.28
80712;BME280;70078;51.596;5.678;2023-10-09T03:50:47;101811.16;;;15.35;84.91
80712;BME280;70078;51.596;5.678;2023-10-09T03:53:14;101756.47;;;14.95;84.37
80712;BME280;70078;51.596;5.678;2023-10-09T03:55:40;101783.66;;;15.09;84.43
80712;BME280;70078;51.596;5.678;2023-10-09T03:58:09;101785.38;;;15.02;84.58
80712;BME280;70078;51.596;5.678;2023-10-09T04:00:37;101813.38;;;15.23;84.65
80712;BME280;70078;51.596;5.678;2023-10-09T04:03:15;101803.44;;;15.24;84.60
80712;BME280;70078;51.596;5.678;2023-10-09T04:05:41;101787.34;;;15.16;84.60
80712;BME280;70078;51.596;5.678;2023-10-09T04:08:09;101811.31;;;15.34;84.53
80712;BME280;70078;51.596;5.678;2023-10-09T04:10:55;101746.06;;;14.92;84.73
80712;BME280;70078;51.596;5.678;2023-10-09T04:13:28;101784.00;;;15.14;84.64
80712;BME280;70078;51.596;5.678;2023-10-09T04:16:01;101768.53;;;15.08;84.96
80712;BME280;70078;51.596;5.678;2023-10-09T04:18:34;101752.19;;;15.17;84.46
80712;BME280;70078;51.596;5.678;2023-10-09T04:21:06;101782.13;;;15.53;84.91
80712;BME280;70078;51.596;5.678;2023-10-09T04:23:44;101711.09;;;15.01;84.44
80712;BME280;70078;51.596;5.678;2023-10-09T04:26:25;101777.31;;;15.41;84.36
80712;BME280;70078;51.596;5.678;2023-10-09T04:28:51;101793.13;;;15.44;84.68
80712;BME280;70078;51.596;5.678;2023-10-09T04:31:19;101742.31;;;15.10;84.93
80712;BME280;70078;51.596;5.678;2023-10-09T04:33:46;101769.78;;;15.36;84.50
80712;BME280;70078;51.596;5.678;2023-10-09T04:36:31;101738.72;;;15.25;85.09
80712;BME280;70078;51.596;5.678;2023-10-09T04:39:11;101747.34;;;15.13;85.11
80712;BME280;70078;51.596;5.678;2023-10-09T04:41:57;101806.25;;;15.39;84.83
80712;BME280;70078;51.596;5.678;2023-10-09T04:44:41;101797.75;;;15.27;85.11
80712;BME280;70078;51.596;5.678;2023-10-09T04:47:34;101824.72;;;15.50;85.15
80712;BME280;70078;51.596;5.678;2023-10-09T04:50:08;101840.88;;;15.50;85.35
80712;BME280;70078;51.596;5.678;2023-10-09T04:52:34;101828.97;;;15.36;84.81
80712;BME280;70078;51.596;5.678;2023-10-09T04:55:00;101789.53;;;15.20;84.89
80712;BME280;70078;51.596;5.678;2023-10-09T04:57:35;101848.59;;;15.53;84.94
80712;BME280;70078;51.596;5.678;2023-10-09T05:00:18;101832.84;;;15.42;84.63
80712;BME280;70078;51.596;5.678;2023-10-09T05:02:57;101820.53;;;15.39;84.04
80712;BME280;70078;51.596;5.678;2023-10-09T05:05:26;101834.78;;;15.56;84.48
80712;BME280;70078;51.596;5.678;2023-10-09T05:08:12;101849.09;;;15.65;83.82
80712;BME280;70078;51.596;5.678;2023-10-09T05:10:44;101838.84;;;15.52;84.08
80712;BME280;70078;51.596;5.678;2023-10-09T05:13:36;101845.03;;;15.61;84.41
80712;BME280;70078;51.596;5.678;2023-10-09T05:16:12;101831.94;;;15.58;84.40
80712;BME280;70078;51.596;5.678;2023-10-09T05:18:55;101834.94;;;15.63;84.04
80712;BME280;70078;51.596;5.678;2023-10-09T05:21:25;101822.31;;;15.63;84.46
80712;BME280;70078;51.596;5.678;2023-10-09T05:23:54;101782.00;;;15.47;83.15
80712;BME280;70078;51.596;5.678;2023-10-09T05:26:47;101830.56;;;15.62;84.00
80712;BME280;70078;51.596;5.678;2023-10-09T05:31:48;101848.94;;;15.50;84.37
80712;BME280;70078;51.596;5.678;2023-10-09T05:34:29;101810.19;;;15.28;84.27
80712;BME280;70078;51.596;5.678;2023-10-09T05:37:20;101766.53;;;15.02;84.16
80712;BME280;70078;51.596;5.678;2023-10-09T05:40:06;101806.69;;;15.19;84.51
80712;BME280;70078;51.596;5.678;2023-10-09T05:42:41;101856.19;;;15.41;84.45
80712;BME280;70078;51.596;5.678;2023-10-09T05:45:10;101866.22;;;15.55;84.55
80712;BME280;70078;51.596;5.678;2023-10-09T05:47:54;101834.34;;;15.36;84.24
80712;BME280;70078;51.596;5.678;2023-10-09T05:50:27;101785.38;;;14.93;84.87
80712;BME280;70078;51.596;5.678;2023-10-09T05:52:54;101837.88;;;15.37;84.53
80712;BME280;70078;51.596;5.678;2023-10-09T05:55:21;101868.91;;;15.64;84.08
80712;BME280;70078;51.596;5.678;2023-10-09T05:57:55;101835.34;;;15.43;84.33
80712;BME280;70078;51.596;5.678;2023-10-09T06:00:24;101852.47;;;15.50;84.73
80712;BME280;70078;51.596;5.678;2023-10-09T06:03:07;101882.38;;;15.55;84.91
80712;BME280;70078;51.596;5.678;2023-10-09T06:05:50;101892.31;;;15.55;84.49
80712;BME280;70078;51.596;5.678;2023-10-09T06:08:22;101888.59;;;15.56;84.80
80712;BME280;70078;51.596;5.678;2023-10-09T06:10:53;101863.78;;;15.38;85.19
80712;BME280;70078;51.596;5.678;2023-10-09T06:13:32;101888.97;;;15.61;85.10
80712;BME280;70078;51.596;5.678;2023-10-09T06:16:04;101836.91;;;15.30;85.32
80712;BME280;70078;51.596;5.678;2023-10-09T06:18:55;101858.88;;;15.41;84.93
80712;BME280;70078;51.596;5.678;2023-10-09T06:21:35;101889.28;;;15.66;84.90
80712;BME280;70078;51.596;5.678;2023-10-09T06:24:20;101860.53;;;15.59;84.66
80712;BME280;70078;51.596;5.678;2023-10-09T06:26:49;101886.19;;;15.77;84.66
80712;BME280;70078;51.596;5.678;2023-10-09T06:32:16;101809.75;;;15.47;84.02
80712;BME280;70078;51.596;5.678;2023-10-09T06:34:57;101843.19;;;15.53;84.33
80712;BME280;70078;51.596;5.678;2023-10-09T06:37:48;101875.81;;;15.66;84.31
80712;BME280;70078;51.596;5.678;2023-10-09T06:40:36;101901.16;;;15.88;83.93
80712;BME280;70078;51.596;5.678;2023-10-09T06:43:03;101836.94;;;15.61;83.70
80712;BME280;70078;51.596;5.678;2023-10-09T06:46:00;101892.72;;;15.91;84.05
80712;BME280;70078;51.596;5.678;2023-10-09T06:48:45;101887.81;;;15.95;83.63
80712;BME280;70078;51.596;5.678;2023-10-09T06:51:14;101872.47;;;16.03;83.32
80712;BME280;70078;51.596;5.678;2023-10-09T06:53:55;101863.25;;;15.90;84.02
80712;BME280;70078;51.596;5.678;2023-10-09T06:56:25;101835.84;;;15.86;83.69
80712;BME280;70078;51.596;5.678;2023-10-09T06:58:57;101872.78;;;16.00;83.85
80712;BME280;70078;51.596;5.678;2023-10-09T07:01:26;101804.00;;;15.59;83.72
80712;BME280;70078;51.596;5.678;2023-10-09T07:04:08;101817.63;;;15.65;83.87
80712;BME280;70078;51.596;5.678;2023-10-09T07:06:46;101882.25;;;15.96;84.19
80712;BME280;70078;51.596;5.678;2023-10-09T07:09:13;101869.13;;;15.93;84.04
80712;BME280;70078;51.596;5.678;2023-10-09T07:11:40;101845.56;;;15.95;84.24
80712;BME280;70078;51.596;5.678;2023-10-09T07:14:13;101863.88;;;16.00;84.06
80712;BME280;70078;51.596;5.678;2023-10-09T07:17:00;101853.31;;;16.21;83.42
80712;BME280;70078;51.596;5.678;2023-10-09T07:19:30;101853.63;;;16.26;83.14
80712;BME280;70078;51.596;5.678;2023-10-09T07:21:59;101767.16;;;15.90;83.25
80712;BME280;70078;51.596;5.678;2023-10-09T07:24:32;101812.81;;;16.06;83.52
80712;BME280;70078;51.596;5.678;2023-10-09T07:27:11;101781.06;;;15.71;83.44
80712;BME280;70078;51.596;5.678;2023-10-09T07:29:39;101800.47;;;15.58;83.92
80712;BME280;70078;51.596;5.678;2023-10-09T07:32:15;101838.47;;;16.02;84.09
80712;BME280;70078;51.596;5.678;2023-10-09T07:35:03;101845.16;;;16.06;83.80
80712;BME280;70078;51.596;5.678;2023-10-09T07:37:34;101799.34;;;15.84;83.69
80712;BME280;70078;51.596;5.678;2023-10-09T07:40:03;101862.09;;;16.15;83.82
80712;BME280;70078;51.596;5.678;2023-10-09T07:42:33;101890.13;;;16.29;83.65
80712;BME280;70078;51.596;5.678;2023-10-09T07:45:19;101870.00;;;16.17;83.84
80712;BME280;70078;51.596;5.678;2023-10-09T07:47:46;101870.97;;;16.24;83.05
80712;BME280;70078;51.596;5.678;2023-10-09T07:50:34;101927.81;;;16.60;83.53
80712;BME280;70078;51.596;5.678;2023-10-09T07:53:15;101936.41;;;16.63;83.33
80712;BME280;70078;51.596;5.678;2023-10-09T07:55:45;101946.50;;;16.61;83.48
80712;BME280;70078;51.596;5.678;2023-10-09T07:58:20;101913.50;;;16.59;83.09
80712;BME280;70078;51.596;5.678;2023-10-09T08:00:52;101827.44;;;16.35;82.08
80712;BME280;70078;51.596;5.678;2023-10-09T08:03:24;101870.31;;;16.68;81.79
80712;BME280;70078;51.596;5.678;2023-10-09T08:05:50;101844.81;;;16.55;81.85
80712;BME280;70078;51.596;5.678;2023-10-09T08:08:18;101834.44;;;16.44;82.04
80712;BME280;70078;51.596;5.678;2023-10-09T08:10:58;101866.19;;;16.57;82.15
80712;BME280;70078;51.596;5.678;2023-10-09T08:13:42;101891.84;;;16.76;81.69
80712;BME280;70078;51.596;5.678;2023-10-09T08:16:26;101874.22;;;16.42;82.16
80712;BME280;70078;51.596;5.678;2023-10-09T08:19:02;101876.72;;;16.67;81.75
80712;BME280;70078;51.596;5.678;2023-10-09T08:21:45;101830.38;;;16.48;82.03
80712;BME280;70078;51.596;5.678;2023-10-09T08:24:31;101827.63;;;16.56;82.39
80712;BME280;70078;51.596;5.678;2023-10-09T08:27:14;101792.84;;;16.61;81.16
80712;BME280;70078;51.596;5.678;2023-10-09T08:30:06;101845.88;;;17.07;80.76
80712;BME280;70078;51.596;5.678;2023-10-09T08:32:45;101823.69;;;16.82;81.10
80712;BME280;70078;51.596;5.678;2023-10-09T08:35:36;101844.69;;;17.09;80.61
80712;BME280;70078;51.596;5.678;2023-10-09T08:38:14;101777.34;;;16.63;81.21
80712;BME280;70078;51.596;5.678;2023-10-09T08:40:43;101850.44;;;17.06;81.00
80712;BME280;70078;51.596;5.678;2023-10-09T08:43:17;101848.47;;;17.15;80.84
80712;BME280;70078;51.596;5.678;2023-10-09T08:45:47;101849.34;;;17.15;80.92
80712;BME280;70078;51.596;5.678;2023-10-09T08:48:13;101850.25;;;17.23;80.34
80712;BME280;70078;51.596;5.678;2023-10-09T08:50:46;101837.88;;;17.13;81.06
80712;BME280;70078;51.596;5.678;2023-10-09T08:53:15;101828.94;;;17.13;80.71
80712;BME280;70078;51.596;5.678;2023-10-09T08:55:41;101871.75;;;17.45;80.64
80712;BME280;70078;51.596;5.678;2023-10-09T08:58:08;101893.09;;;17.55;79.66
80712;BME280;70078;51.596;5.678;2023-10-09T09:00:47;101891.88;;;17.58;80.03
80712;BME280;70078;51.596;5.678;2023-10-09T09:03:18;101910.41;;;17.75;80.15
80712;BME280;70078;51.596;5.678;2023-10-09T09:05:48;101918.41;;;17.98;78.78
80712;BME280;70078;51.596;5.678;2023-10-09T09:08:24;101856.47;;;17.67;79.24
80712;BME280;70078;51.596;5.678;2023-10-09T09:11:03;101931.00;;;18.27;78.47
80712;BME280;70078;51.596;5.678;2023-10-09T09:13:45;101908.19;;;18.30;77.86
80712;BME280;70078;51.596;5.678;2023-10-09T09:16:22;101922.25;;;18.62;78.03
80712;BME280;70078;51.596;5.678;2023-10-09T09:18:56;101901.75;;;18.67;76.84
80712;BME280;70078;51.596;5.678;2023-10-09T09:21:35;101895.34;;;18.75;76.16
80712;BME280;70078;51.596;5.678;2023-10-09T09:24:12;101909.16;;;19.08;75.40
80712;BME280;70078;51.596;5.678;2023-10-09T09:26:46;101919.53;;;19.32;74.25
80712;BME280;70078;51.596;5.678;2023-10-09T09:29:13;101915.50;;;19.50;73.71
80712;BME280;70078;51.596;5.678;2023-10-09T09:31:51;101882.25;;;19.34;74.15
80712;BME280;70078;51.596;5.678;2023-10-09T09:34:17;101922.75;;;19.77;72.98
80712;BME280;70078;51.596;5.678;2023-10-09T09:36:53;101926.13;;;19.86;71.75
80712;BME280;70078;51.596;5.678;2023-10-09T09:39:24;101913.97;;;19.68;71.89
80712;BME280;70078;51.596;5.678;2023-10-09T09:42:00;101936.63;;;19.95;71.79
80712;BME280;70078;51.596;5.678;2023-10-09T09:44:39;101917.59;;;19.89;71.96
80712;BME280;70078;51.596;5.678;2023-10-09T09:47:14;101951.31;;;20.21;71.20
80712;BME280;70078;51.596;5.678;2023-10-09T09:49:50;101909.50;;;20.02;70.70
80712;BME280;70078;51.596;5.678;2023-10-09T09:52:16;101926.91;;;20.21;70.55
80712;BME280;70078;51.596;5.678;2023-10-09T09:54:43;101897.88;;;20.15;69.92
80712;BME280;70078;51.596;5.678;2023-10-09T09:57:09;101882.41;;;20.02;70.99
80712;BME280;70078;51.596;5.678;2023-10-09T09:59:39;101922.16;;;20.36;71.15
80712;BME280;70078;51.596;5.678;2023-10-09T10:02:18;101938.06;;;20.53;70.39
80712;BME280;70078;51.596;5.678;2023-10-09T10:04:46;101910.47;;;20.36;70.95
80712;BME280;70078;51.596;5.678;2023-10-09T10:07:15;101941.47;;;20.74;70.76
80712;BME280;70078;51.596;5.678;2023-10-09T10:09:42;101913.88;;;20.77;69.17
80712;BME280;70078;51.596;5.678;2023-10-09T10:12:11;101905.97;;;20.96;68.50
80712;BME280;70078;51.596;5.678;2023-10-09T10:14:58;101945.25;;;21.20;68.02
80712;BME280;70078;51.596;5.678;2023-10-09T10:17:27;101957.38;;;21.24;68.16
80712;BME280;70078;51.596;5.678;2023-10-09T10:22:29;101931.25;;;21.29;68.81
80712;BME280;70078;51.596;5.678;2023-10-09T10:24:56;101931.25;;;21.36;67.41
80712;BME280;70078;51.596;5.678;2023-10-09T10:27:25;101908.91;;;21.34;67.78
80712;BME280;70078;51.596;5.678;2023-10-09T10:35:21;101950.16;;;21.82;68.01
80712;BME280;70078;51.596;5.678;2023-10-09T10:37:58;101945.97;;;21.93;67.02
80712;BME280;70078;51.596;5.678;2023-10-09T10:40:32;101916.94;;;21.80;66.54
80712;BME280;70078;51.596;5.678;2023-10-09T10:43:07;101898.72;;;21.81;67.31
80712;BME280;70078;51.596;5.678;2023-10-09T10:46:07;101946.31;;;22.17;67.22
80712;BME280;70078;51.596;5.678;2023-10-09T10:48:49;101893.19;;;22.07;65.35
80712;BME280;70078;51.596;5.678;2023-10-09T10:51:24;101930.09;;;22.35;65.40
80712;BME280;70078;51.596;5.678;2023-10-09T10:53:59;101931.38;;;22.32;64.92
80712;BME280;70078;51.596;5.678;2023-10-09T10:56:25;101946.16;;;22.43;64.05
80712;BME280;70078;51.596;5.678;2023-10-09T10:59:01;101890.25;;;22.15;64.21
80712;BME280;70078;51.596;5.678;2023-10-09T11:01:35;101865.00;;;21.95;65.06
80712;BME280;70078;51.596;5.678;2023-10-09T11:04:45;101883.84;;;22.35;64.92
80712;BME280;70078;51.596;5.678;2023-10-09T11:07:21;101919.03;;;22.68;65.63
80712;BME280;70078;51.596;5.678;2023-10-09T11:09:51;101912.16;;;22.59;63.40
80712;BME280;70078;51.596;5.678;2023-10-09T11:15:34;101915.75;;;22.84;64.90
80712;BME280;70078;51.596;5.678;2023-10-09T11:18:09;101868.06;;;22.75;65.20
80712;BME280;70078;51.596;5.678;2023-10-09T11:20:45;101924.00;;;23.46;61.80
80712;BME280;70078;51.596;5.678;2023-10-09T11:23:40;101933.75;;;23.78;61.67
80712;BME280;70078;51.596;5.678;2023-10-09T11:26:18;101940.34;;;23.89;61.88
80712;BME280;70078;51.596;5.678;2023-10-09T11:29:20;101917.97;;;23.99;61.28
80712;BME280;70078;51.596;5.678;2023-10-09T11:32:04;101915.03;;;24.30;60.86
80712;BME280;70078;51.596;5.678;2023-10-09T11:34:32;101949.94;;;24.58;61.79
80712;BME280;70078;51.596;5.678;2023-10-09T11:39:37;101916.53;;;24.98;56.27
80712;BME280;70078;51.596;5.678;2023-10-09T11:42:18;101922.38;;;25.02;58.62
80712;BME280;70078;51.596;5.678;2023-10-09T11:45:04;101937.84;;;25.20;59.18
80712;BME280;70078;51.596;5.678;2023-10-09T11:47:46;101927.03;;;25.13;58.27
80712;BME280;70078;51.596;5.678;2023-10-09T11:50:38;101940.09;;;25.23;59.47
80712;BME280;70078;51.596;5.678;2023-10-09T11:53:08;101850.69;;;24.53;59.42
80712;BME280;70078;51.596;5.678;2023-10-09T11:55:36;101931.31;;;25.09;56.68
80712;BME280;70078;51.596;5.678;2023-10-09T11:58:03;101919.53;;;24.55;58.27
80712;BME280;70078;51.596;5.678;2023-10-09T12:00:30;101932.75;;;24.70;58.13
80712;BME280;70078;51.596;5.678;2023-10-09T12:02:57;101888.50;;;24.38;57.99
80712;BME280;70078;51.596;5.678;2023-10-09T12:05:31;101921.19;;;24.44;58.81
80712;BME280;70078;51.596;5.678;2023-10-09T12:07:56;101895.56;;;24.27;58.42
80712;BME280;70078;51.596;5.678;2023-10-09T12:10:22;101941.34;;;24.43;57.94
80712;BME280;70078;51.596;5.678;2023-10-09T12:12:54;101921.88;;;24.21;58.67
80712;BME280;70078;51.596;5.678;2023-10-09T12:15:25;101904.09;;;24.00;58.55
80712;BME280;70078;51.596;5.678;2023-10-09T12:18:02;101911.63;;;24.05;59.70
80712;BME280;70078;51.596;5.678;2023-10-09T12:20:28;101919.91;;;24.10;60.40
80712;BME280;70078;51.596;5.678;2023-10-09T12:22:58;101898.72;;;23.57;59.23
80712;BME280;70078;51.596;5.678;2023-10-09T12:25:24;101916.94;;;23.63;59.88
80712;BME280;70078;51.596;5.678;2023-10-09T12:27:49;101892.13;;;23.46;60.12
80712;BME280;70078;51.596;5.678;2023-10-09T12:30:14;101871.69;;;23.37;61.08
80712;BME280;70078;51.596;5.678;2023-10-09T12:32:40;101874.56;;;23.42;60.66
80712;BME280;70078;51.596;5.678;2023-10-09T12:35:06;101885.19;;;23.50;61.15
80712;BME280;70078;51.596;5.678;2023-10-09T12:37:42;101902.22;;;23.46;61.58
80712;BME280;70078;51.596;5.678;2023-10-09T12:40:08;101869.44;;;23.52;60.50
80712;BME280;70078;51.596;5.678;2023-10-09T12:42:45;101894.66;;;23.85;61.16
80712;BME280;70078;51.596;5.678;2023-10-09T12:45:11;101885.72;;;23.96;60.66
80712;BME280;70078;51.596;5.678;2023-10-09T12:47:37;101898.13;;;23.92;60.75
80712;BME280;70078;51.596;5.678;2023-10-09T12:50:06;101895.47;;;24.03;60.78
80712;BME280;70078;51.596;5.678;2023-10-09T12:52:39;101899.22;;;24.21;58.97
80712;BME280;70078;51.596;5.678;2023-10-09T12:55:05;101798.25;;;23.42;59.94
80712;BME280;70078;51.596;5.678;2023-10-09T12:57:44;101843.91;;;23.65;59.67
80712;BME280;70078;51.596;5.678;2023-10-09T13:00:10;101851.34;;;23.58;59.68
80712;BME280;70078;51.596;5.678;2023-10-09T13:02:37;101862.00;;;23.60;60.24
80712;BME280;70078;51.596;5.678;2023-10-09T13:05:02;101880.28;;;23.77;60.13
80712;BME280;70078;51.596;5.678;2023-10-09T13:07:30;101831.34;;;23.46;61.19
80712;BME280;70078;51.596;5.678;2023-10-09T13:09:56;101842.09;;;23.59;60.63
80712;BME280;70078;51.596;5.678;2023-10-09T13:12:34;101799.78;;;23.38;60.46
80712;BME280;70078;51.596;5.678;2023-10-09T13:14:59;101842.19;;;23.71;61.82
80712;BME280;70078;51.596;5.678;2023-10-09T13:17:24;101870.19;;;23.96;61.31
80712;BME280;70078;51.596;5.678;2023-10-09T13:19:52;101888.00;;;24.11;61.45
80712;BME280;70078;51.596;5.678;2023-10-09T13:22:18;101850.94;;;23.91;60.80
80712;BME280;70078;51.596;5.678;2023-10-09T13:24:43;101870.63;;;24.23;60.48
80712;BME280;70078;51.596;5.678;2023-10-09T13:27:09;101880.91;;;24.40;58.88
80712;BME280;70078;51.596;5.678;2023-10-09T13:29:36;101888.03;;;24.41;59.60
80712;BME280;70078;51.596;5.678;2023-10-09T13:32:05;101860.44;;;24.30;59.75
80712;BME280;70078;51.596;5.678;2023-10-09T13:34:39;101909.28;;;24.39;59.69
80712;BME280;70078;51.596;5.678;2023-10-09T13:37:09;101885.19;;;24.35;59.16
80712;BME280;70078;51.596;5.678;2023-10-09T13:39:42;101820.97;;;24.03;58.75
80712;BME280;70078;51.596;5.678;2023-10-09T13:42:21;101868.81;;;24.17;59.26